createdAt,value
2018-04-15T00:00:36.996Z,17.30
2018-04-15T00:03:04.500Z,17.00
2018-04-15T00:05:32.799Z,17.00
2018-04-15T00:08:00.290Z,17.00
2018-04-15T00:10:27.827Z,17.10
2018-04-15T00:12:55.350Z,17.20
2018-04-15T00:15:23.646Z,17.40
2018-04-15T00:17:51.186Z,17.40
2018-04-15T00:20:19.487Z,17.40
2018-04-15T00:22:47.031Z,17.40
2018-04-15T00:25:15.315Z,17.30
2018-04-15T00:27:42.815Z,17.30
2018-04-15T00:30:10.326Z,17.40
2018-04-15T00:32:38.615Z,17.40
2018-04-15T00:35:06.118Z,17.40
2018-04-15T00:37:33.661Z,17.50
2018-04-15T00:40:01.203Z,17.40
2018-04-15T00:42:28.694Z,17.40
2018-04-15T00:44:56.225Z,17.40
2018-04-15T00:47:23.720Z,17.40
2018-04-15T00:49:51.244Z,17.40
2018-04-15T00:52:18.744Z,17.40
2018-04-15T00:54:47.031Z,17.50
2018-04-15T00:57:14.536Z,17.50
2018-04-15T00:59:42.079Z,17.50
2018-04-15T01:02:09.579Z,17.30
2018-04-15T01:04:37.069Z,17.30
2018-04-15T01:07:04.605Z,17.30
2018-04-15T01:09:32.876Z,17.40
2018-04-15T01:12:00.403Z,17.40
2018-04-15T01:14:27.897Z,17.40
2018-04-15T01:16:56.191Z,17.40
2018-04-15T01:19:23.682Z,17.40
2018-04-15T01:21:51.216Z,17.40
2018-04-15T01:24:18.732Z,17.40
2018-04-15T01:26:46.258Z,17.40
2018-04-15T01:29:13.758Z,17.30
2018-04-15T01:31:42.034Z,17.40
2018-04-15T01:34:10.327Z,17.30
2018-04-15T01:36:38.237Z,17.30
2018-04-15T01:39:05.767Z,17.30
2018-04-15T01:41:33.259Z,17.30
2018-04-15T01:44:00.772Z,17.30
2018-04-15T01:46:28.323Z,17.30
2018-04-15T01:48:56.613Z,17.30
2018-04-15T01:51:24.111Z,17.30
2018-04-15T01:53:51.687Z,17.30
2018-04-15T01:56:19.182Z,17.30
2018-04-15T01:58:46.702Z,17.30
2018-04-15T02:01:14.230Z,17.20
2018-04-15T02:03:41.726Z,17.10
2018-04-15T02:06:10.009Z,17.10
2018-04-15T02:08:38.278Z,17.10
2018-04-15T02:11:06.554Z,17.10
2018-04-15T02:13:34.834Z,17.00
2018-04-15T02:16:03.107Z,17.00
2018-04-15T02:18:31.384Z,16.90
2018-04-15T02:20:59.693Z,16.90
2018-04-15T02:23:27.189Z,16.90
2018-04-15T02:25:54.714Z,16.90
2018-04-15T02:28:22.221Z,16.90
2018-04-15T02:30:49.751Z,16.90
2018-04-15T02:33:17.278Z,16.90
2018-04-15T02:35:44.798Z,16.80
2018-04-15T02:38:13.141Z,16.80
2018-04-15T02:40:41.355Z,16.80
2018-04-15T02:43:09.643Z,16.70
2018-04-15T02:45:37.895Z,16.70
2018-04-15T02:48:05.414Z,16.70
2018-04-15T02:50:32.951Z,16.80
2018-04-15T02:53:00.459Z,16.80
2018-04-15T02:55:27.985Z,16.80
2018-04-15T02:57:55.510Z,16.90
2018-04-15T03:00:23.060Z,16.90
2018-04-15T03:02:51.331Z,16.90
2018-04-15T03:05:19.619Z,16.90
2018-04-15T03:07:47.117Z,16.90
2018-04-15T03:10:14.630Z,16.90
2018-04-15T03:12:42.124Z,16.90
2018-04-15T03:15:09.661Z,16.90
2018-04-15T03:17:37.182Z,16.90
2018-04-15T03:20:05.453Z,16.90
2018-04-15T03:22:32.976Z,16.90
2018-04-15T03:25:00.494Z,16.90
2018-04-15T03:27:28.004Z,16.70
2018-04-15T03:29:55.499Z,16.60
2018-04-15T03:32:23.782Z,16.30
2018-04-15T03:34:51.276Z,16.30
2018-04-15T03:37:18.820Z,16.30
2018-04-15T03:39:46.311Z,16.40
2018-04-15T03:42:13.819Z,16.40
2018-04-15T03:44:41.320Z,16.50
2018-04-15T03:47:08.862Z,16.50
2018-04-15T03:49:36.371Z,16.50
2018-04-15T03:52:04.655Z,16.60
2018-04-15T03:54:32.939Z,16.60
2018-04-15T03:57:00.481Z,16.60
2018-04-15T03:59:28.776Z,16.50
2018-04-15T04:01:56.281Z,16.60
2018-04-15T04:04:23.890Z,16.60
2018-04-15T04:06:51.395Z,16.50
2018-04-15T04:09:18.909Z,16.50
2018-04-15T04:11:46.407Z,16.50
2018-04-15T04:14:13.942Z,16.40
2018-04-15T04:16:41.434Z,16.40
2018-04-15T04:19:21.572Z,16.40
2018-04-15T04:22:01.042Z,16.40
2018-04-15T04:24:41.209Z,16.30
2018-04-15T04:27:09.489Z,16.40
2018-04-15T04:29:38.679Z,16.40
2018-04-15T04:32:06.943Z,16.40
2018-04-15T04:34:35.222Z,16.40
2018-04-15T04:37:03.490Z,16.00
2018-04-15T04:39:31.794Z,15.70
2018-04-15T04:41:59.282Z,15.60
2018-04-15T04:44:26.821Z,15.30
2018-04-15T04:46:54.324Z,15.10
2018-04-15T04:49:21.841Z,14.80
2018-04-15T04:51:49.351Z,14.60
2018-04-15T04:54:17.617Z,14.40
2018-04-15T04:56:45.137Z,14.40
2018-04-15T04:59:12.626Z,14.40
2018-04-15T05:01:40.194Z,14.30
2018-04-15T05:04:07.706Z,14.10
2018-04-15T05:06:35.218Z,14.00
2018-04-15T05:09:03.561Z,14.40
2018-04-15T05:11:31.093Z,14.40
2018-04-15T05:13:58.600Z,14.70
2018-04-15T05:16:26.124Z,15.00
2018-04-15T05:18:53.627Z,15.30
2018-04-15T05:21:21.966Z,15.50
2018-04-15T05:23:49.466Z,15.50
2018-04-15T05:26:17.734Z,15.50
2018-04-15T05:28:46.020Z,15.50
2018-04-15T05:31:14.295Z,15.40
2018-04-15T05:33:42.563Z,15.40
2018-04-15T05:36:10.836Z,15.30
2018-04-15T05:38:39.119Z,15.20
2018-04-15T05:41:07.385Z,15.10
2018-04-15T05:43:35.678Z,15.20
2018-04-15T05:46:03.175Z,15.20
2018-04-15T05:48:30.708Z,15.30
2018-04-15T05:50:58.216Z,15.50
2018-04-15T05:53:25.732Z,15.70
2018-04-15T05:55:53.272Z,15.80
2018-04-15T05:58:20.776Z,15.90
2018-04-15T06:00:48.302Z,16.00
2018-04-15T06:03:15.811Z,16.10
2018-04-15T06:05:43.339Z,16.00
2018-04-15T06:08:10.868Z,16.00
2018-04-15T06:10:38.403Z,16.10
2018-04-15T06:13:06.669Z,16.00
2018-04-15T06:15:34.945Z,16.10
2018-04-15T06:18:03.280Z,16.20
2018-04-15T06:20:30.798Z,16.10
2018-04-15T06:22:58.319Z,16.10
2018-04-15T06:25:26.627Z,16.20
2018-04-15T06:27:54.922Z,16.30
2018-04-15T06:30:22.426Z,16.30
2018-04-15T06:32:49.959Z,16.40
2018-04-15T06:35:17.475Z,16.50
2018-04-15T06:37:45.759Z,16.60
2018-04-15T06:40:13.274Z,16.60
2018-04-15T06:42:40.790Z,16.50
2018-04-15T06:45:08.327Z,16.50
2018-04-15T06:47:35.862Z,16.70
2018-04-15T06:50:03.561Z,16.60
2018-04-15T06:52:31.063Z,16.60
2018-04-15T06:54:58.599Z,16.60
2018-04-15T06:57:26.099Z,16.70
2018-04-15T06:59:54.477Z,16.70
2018-04-15T07:02:22.759Z,16.80
2018-04-15T07:04:51.025Z,16.90
2018-04-15T07:07:19.314Z,16.90
2018-04-15T07:09:47.588Z,16.90
2018-04-15T07:12:15.884Z,17.00
2018-04-15T07:14:43.390Z,17.00
2018-04-15T07:17:10.932Z,17.10
2018-04-15T07:19:38.486Z,17.20
2018-04-15T07:22:05.992Z,17.20
2018-04-15T07:24:34.303Z,16.80
2018-04-15T07:27:01.863Z,16.80
2018-04-15T07:29:29.385Z,16.70
2018-04-15T07:31:57.661Z,16.40
2018-04-15T07:34:25.259Z,16.40
2018-04-15T07:36:52.780Z,16.40
2018-04-15T07:39:21.061Z,16.20
2018-04-15T07:41:48.591Z,16.20
2018-04-15T07:44:16.102Z,16.20
2018-04-15T07:46:43.633Z,16.10
2018-04-15T07:49:11.126Z,16.10
2018-04-15T07:51:38.885Z,16.10
2018-04-15T07:54:06.386Z,16.10
2018-04-15T07:56:33.934Z,16.00
2018-04-15T07:59:01.468Z,15.90
2018-04-15T08:01:29.006Z,15.90
2018-04-15T08:03:56.878Z,15.90
2018-04-15T08:06:24.412Z,15.90
2018-04-15T08:08:51.912Z,15.90
2018-04-15T08:11:19.427Z,15.90
2018-04-15T08:13:46.956Z,15.90
2018-04-15T08:16:14.492Z,16.00
2018-04-15T08:18:42.005Z,16.00
2018-04-15T08:21:09.563Z,16.00
2018-04-15T08:23:37.069Z,16.10
2018-04-15T08:26:04.576Z,16.10
2018-04-15T08:28:32.090Z,16.10
2018-04-15T08:31:00.367Z,16.10
2018-04-15T08:33:29.721Z,16.10
2018-04-15T08:35:57.255Z,16.10
2018-04-15T08:38:25.578Z,16.30
2018-04-15T08:40:53.081Z,16.30
2018-04-15T08:43:20.696Z,16.30
2018-04-15T08:45:48.166Z,16.40
2018-04-15T08:48:15.686Z,16.50
2018-04-15T08:50:43.198Z,16.60
2018-04-15T08:53:11.493Z,16.70
2018-04-15T08:55:39.763Z,16.80
2018-04-15T08:58:08.063Z,16.80
2018-04-15T09:00:35.615Z,16.80
2018-04-15T09:03:03.103Z,16.90
2018-04-15T09:05:30.643Z,16.90
2018-04-15T09:07:58.158Z,16.90
2018-04-15T09:10:26.455Z,16.90
2018-04-15T09:12:54.741Z,16.90
2018-04-15T09:15:22.300Z,16.90
2018-04-15T09:17:49.822Z,17.00
2018-04-15T09:20:17.367Z,17.00
2018-04-15T09:22:44.871Z,17.10
2018-04-15T09:25:12.403Z,17.10
2018-04-15T09:27:40.731Z,17.20
2018-04-15T09:30:08.289Z,17.20
2018-04-15T09:32:35.837Z,17.30
2018-04-15T09:35:03.370Z,17.30
2018-04-15T09:37:30.948Z,17.40
2018-04-15T09:39:58.453Z,17.40
2018-04-15T09:42:26.001Z,17.40
2018-04-15T09:44:53.518Z,17.40
2018-04-15T09:47:21.087Z,17.40
2018-04-15T09:49:48.606Z,17.40
2018-04-15T09:52:16.903Z,17.50
2018-04-15T09:54:44.399Z,17.50
2018-04-15T09:57:11.940Z,17.60
2018-04-15T09:59:39.585Z,17.60
2018-04-15T10:02:07.097Z,17.70
2018-04-15T10:04:34.641Z,17.80
2018-04-15T10:07:02.138Z,17.80
2018-04-15T10:09:29.672Z,17.90
2018-04-15T10:11:57.195Z,17.90
2018-04-15T10:14:24.735Z,17.90
2018-04-15T10:16:52.261Z,17.90
2018-04-15T10:19:20.572Z,18.00
2018-04-15T10:21:48.095Z,18.00
2018-04-15T10:24:16.414Z,18.10
2018-04-15T10:26:43.992Z,18.00
2018-04-15T10:29:11.548Z,18.10
2018-04-15T10:31:39.056Z,18.10
2018-04-15T10:34:06.628Z,18.20
2018-04-15T10:36:34.156Z,18.20
2018-04-15T10:39:02.425Z,18.40
2018-04-15T10:41:29.957Z,18.30
2018-04-15T10:43:57.937Z,18.50
2018-04-15T10:46:25.477Z,18.50
2018-04-15T10:48:53.004Z,18.60
2018-04-15T10:51:20.533Z,18.70
2018-04-15T10:53:48.803Z,18.90
2018-04-15T10:56:16.332Z,18.90
2018-04-15T10:58:44.247Z,19.00
2018-04-15T11:01:12.553Z,19.20
2018-04-15T11:03:40.070Z,19.20
2018-04-15T11:06:08.402Z,19.30
2018-04-15T11:08:35.920Z,19.20
2018-04-15T11:11:03.439Z,19.20
2018-04-15T11:13:30.973Z,19.20
2018-04-15T11:15:58.509Z,19.30
2018-04-15T11:18:26.026Z,19.40
2018-04-15T11:20:53.552Z,19.50
2018-04-15T11:23:21.104Z,19.60
2018-04-15T11:25:48.610Z,19.60
2018-04-15T11:28:17.049Z,19.70
2018-04-15T11:30:44.619Z,19.60
2018-04-15T11:33:12.174Z,19.70
2018-04-15T11:35:39.697Z,19.80
2018-04-15T11:38:07.230Z,19.80
2018-04-15T11:40:35.502Z,19.80
2018-04-15T11:43:03.864Z,19.80
2018-04-15T11:45:31.402Z,19.80
2018-04-15T11:47:59.813Z,20.00
2018-04-15T11:50:28.095Z,20.10
2018-04-15T11:52:55.613Z,20.10
2018-04-15T11:55:23.174Z,20.30
2018-04-15T11:57:50.689Z,20.30
2018-04-15T12:00:18.228Z,20.30
2018-04-15T12:02:45.762Z,20.40
2018-04-15T12:05:14.080Z,20.40
2018-04-15T12:07:41.639Z,20.40
2018-04-15T12:10:09.193Z,20.40
2018-04-15T12:12:36.663Z,20.40
2018-04-15T12:15:04.258Z,20.40
2018-04-15T12:17:31.872Z,20.40
2018-04-15T12:19:59.437Z,20.40
2018-04-15T12:22:26.977Z,20.40
2018-04-15T12:24:54.531Z,20.40
2018-04-15T12:27:22.848Z,20.50
2018-04-15T12:29:50.378Z,20.50
2018-04-15T12:32:17.900Z,20.50
2018-04-15T12:34:45.420Z,20.50
2018-04-15T12:37:12.965Z,20.50
2018-04-15T12:39:40.466Z,20.50
2018-04-15T12:42:08.760Z,20.50
2018-04-15T12:44:37.171Z,20.50
2018-04-15T12:47:04.766Z,20.50
2018-04-15T12:49:32.260Z,20.50
2018-04-15T12:52:00.562Z,20.60
2018-04-15T12:54:28.096Z,20.50
2018-04-15T12:56:56.398Z,20.80
2018-04-15T12:59:23.972Z,20.80
2018-04-15T13:01:51.504Z,20.90
2018-04-15T13:04:19.014Z,21.00
2018-04-15T13:06:46.563Z,21.20
2018-04-15T13:09:14.069Z,21.30
2018-04-15T13:11:41.597Z,21.50
2018-04-15T13:14:09.122Z,21.60
2018-04-15T13:16:37.085Z,21.80
2018-04-15T13:19:04.604Z,21.90
2018-04-15T13:21:32.883Z,22.10
2018-04-15T13:24:00.444Z,22.00
2018-04-15T13:26:27.977Z,22.10
2018-04-15T13:28:55.490Z,22.20
2018-04-15T13:31:23.045Z,22.20
2018-04-15T13:33:50.590Z,22.30
2018-04-15T13:36:18.113Z,22.40
2018-04-15T13:38:45.665Z,22.40
2018-04-15T13:41:13.201Z,22.60
2018-04-15T13:43:40.747Z,22.70
2018-04-15T13:46:08.289Z,22.90
2018-04-15T13:48:35.792Z,22.90
2018-04-15T13:51:03.342Z,22.90
2018-04-15T13:53:30.863Z,22.90
2018-04-15T13:55:58.390Z,22.90
2018-04-15T13:58:26.664Z,23.00
2018-04-15T14:00:54.991Z,23.20
2018-04-15T14:03:22.510Z,23.10
2018-04-15T14:05:50.043Z,23.20
2018-04-15T14:08:18.307Z,23.20
2018-04-15T14:10:45.863Z,23.20
2018-04-15T14:13:13.386Z,23.30
2018-04-15T14:15:40.903Z,23.50
2018-04-15T14:18:09.206Z,23.60
2018-04-15T14:20:36.703Z,23.60
2018-04-15T14:23:04.227Z,23.70
2018-04-15T14:25:31.776Z,23.70
2018-04-15T14:27:59.312Z,23.70
2018-04-15T14:30:27.579Z,23.80
2018-04-15T14:32:55.883Z,23.90
2018-04-15T14:35:23.389Z,23.90
2018-04-15T14:37:50.930Z,24.00
2018-04-15T14:40:18.463Z,24.00
2018-04-15T14:42:45.986Z,24.10
2018-04-15T14:45:14.331Z,24.10
2018-04-15T14:47:41.836Z,24.00
2018-04-15T14:50:10.185Z,24.00
2018-04-15T14:52:37.707Z,24.00
2018-04-15T14:55:05.253Z,23.90
2018-04-15T14:57:32.761Z,23.90
2018-04-15T15:00:00.336Z,23.90
2018-04-15T15:02:28.614Z,23.80
2018-04-15T15:04:56.937Z,23.80
2018-04-15T15:07:24.462Z,23.70
2018-04-15T15:09:52.020Z,23.80
2018-04-15T15:12:19.527Z,23.80
2018-04-15T15:14:47.070Z,23.60
2018-04-15T15:17:14.580Z,23.50
2018-04-15T15:19:42.877Z,23.30
2018-04-15T15:22:10.405Z,23.30
2018-04-15T15:24:38.664Z,23.00
2018-04-15T15:27:06.198Z,23.00
2018-04-15T15:29:33.697Z,23.00
2018-04-15T15:32:01.982Z,23.00
2018-04-15T15:34:30.489Z,23.10
2018-04-15T15:36:58.068Z,23.00
2018-04-15T15:39:25.588Z,23.10
2018-04-15T15:41:53.112Z,23.20
2018-04-15T15:44:20.609Z,23.20
2018-04-15T15:46:48.188Z,23.30
2018-04-15T15:49:15.700Z,23.30
2018-04-15T15:51:43.991Z,23.20
2018-04-15T15:54:11.535Z,23.20
2018-04-15T15:56:39.831Z,23.10
2018-04-15T15:59:07.367Z,23.10
2018-04-15T16:01:35.669Z,23.10
2018-04-15T16:04:03.222Z,23.10
2018-04-15T16:06:30.764Z,23.00
2018-04-15T16:08:59.043Z,23.00
2018-04-15T16:11:27.306Z,22.90
2018-04-15T16:13:54.840Z,22.80
2018-04-15T16:16:22.364Z,22.70
2018-04-15T16:18:49.901Z,22.60
2018-04-15T16:21:17.439Z,22.50
2018-04-15T16:23:45.727Z,22.40
2018-04-15T16:26:14.046Z,22.40
2018-04-15T16:28:41.569Z,22.30
2018-04-15T16:31:09.109Z,22.30
2018-04-15T16:33:37.409Z,22.20
2018-04-15T16:36:04.943Z,22.20
2018-04-15T16:38:32.499Z,22.20
2018-04-15T16:41:00.838Z,22.10
2018-04-15T16:43:28.398Z,22.00
2018-04-15T16:45:55.944Z,22.00
2018-04-15T16:48:23.469Z,22.00
2018-04-15T16:50:51.058Z,22.00
2018-04-15T16:53:18.591Z,21.90
2018-04-15T16:55:46.123Z,21.80
2018-04-15T16:58:14.413Z,21.70
2018-04-15T17:00:42.722Z,21.60
2018-04-15T17:03:10.244Z,21.60
2018-04-15T17:05:38.576Z,21.50
2018-04-15T17:08:06.119Z,21.40
2018-04-15T17:10:33.669Z,21.40
2018-04-15T17:13:01.263Z,21.30
2018-04-15T17:15:28.792Z,21.30
2018-04-15T17:17:56.323Z,21.30
2018-04-15T17:20:24.003Z,21.30
2018-04-15T17:22:51.831Z,21.20
2018-04-15T17:25:20.147Z,21.20
2018-04-15T17:27:47.724Z,21.10
2018-04-15T17:30:15.253Z,21.10
2018-04-15T17:32:42.781Z,21.10
2018-04-15T17:35:11.090Z,21.00
2018-04-15T17:37:38.651Z,21.00
2018-04-15T17:40:06.203Z,21.00
2018-04-15T17:42:33.749Z,21.00
2018-04-15T17:45:01.263Z,20.90
2018-04-15T17:47:28.940Z,20.90
2018-04-15T17:49:56.474Z,20.80
2018-04-15T17:52:24.004Z,20.80
2018-04-15T17:54:51.540Z,20.80
2018-04-15T17:57:19.085Z,20.70
2018-04-15T17:59:47.370Z,20.60
2018-04-15T18:02:15.644Z,20.60
2018-04-15T18:04:43.968Z,20.50
2018-04-15T18:07:11.482Z,20.50
2018-04-15T18:09:39.795Z,20.40
2018-04-15T18:12:07.755Z,20.40
2018-04-15T18:14:35.285Z,20.40
2018-04-15T18:17:03.591Z,20.30
2018-04-15T18:19:31.160Z,20.30
2018-04-15T18:21:58.734Z,20.30
2018-04-15T18:24:26.251Z,20.30
2018-04-15T18:26:53.806Z,20.20
2018-04-15T18:29:21.333Z,20.20
2018-04-15T18:31:48.892Z,20.20
2018-04-15T18:34:16.415Z,20.10
2018-04-15T18:36:44.000Z,20.10
2018-04-15T18:39:11.479Z,20.10
2018-04-15T18:41:39.812Z,20.00
2018-04-15T18:44:07.428Z,20.00
2018-04-15T18:46:34.958Z,20.00
2018-04-15T18:49:02.520Z,19.90
2018-04-15T18:51:30.840Z,19.90
2018-04-15T18:53:59.209Z,19.90
2018-04-15T18:56:26.737Z,19.80
2018-04-15T18:58:55.038Z,19.80
2018-04-15T19:01:23.030Z,19.80
2018-04-15T19:03:50.564Z,19.80
2018-04-15T19:06:18.402Z,19.80
2018-04-15T19:08:46.053Z,19.70
2018-04-15T19:11:14.363Z,19.70
2018-04-15T19:13:41.957Z,19.70
2018-04-15T19:16:09.480Z,19.70
2018-04-15T19:18:37.007Z,19.60
2018-04-15T19:21:04.669Z,19.60
2018-04-15T19:23:32.390Z,19.60
2018-04-15T19:26:01.423Z,19.60
2018-04-15T19:28:29.036Z,19.60
2018-04-15T19:30:56.576Z,19.60
2018-04-15T19:33:24.096Z,19.60
2018-04-15T19:35:51.880Z,19.60
2018-04-15T19:38:20.254Z,19.60
2018-04-15T19:40:48.111Z,19.50
2018-04-15T19:43:16.403Z,19.50
2018-04-15T19:45:44.715Z,19.50
2018-04-15T19:48:12.306Z,19.50
2018-04-15T19:50:39.858Z,19.50
2018-04-15T19:53:07.457Z,19.40
2018-04-15T19:55:35.739Z,19.40
2018-04-15T19:58:03.309Z,19.40
2018-04-15T20:00:30.820Z,19.40
2018-04-15T20:02:58.375Z,19.40
2018-04-15T20:05:25.916Z,19.40
2018-04-15T20:07:53.480Z,19.40
2018-04-15T20:10:20.990Z,19.40
2018-04-15T20:12:48.587Z,19.30
2018-04-15T20:15:16.115Z,19.30
2018-04-15T20:17:43.904Z,19.30
2018-04-15T20:20:11.455Z,19.30
2018-04-15T20:22:38.969Z,19.30
2018-04-15T20:25:07.279Z,19.30
2018-04-15T20:27:34.780Z,19.20
2018-04-15T20:30:02.311Z,19.20
2018-04-15T20:32:29.833Z,19.20
2018-04-15T20:34:57.393Z,19.20
2018-04-15T20:37:24.897Z,19.20
2018-04-15T20:39:52.458Z,19.20
2018-04-15T20:42:19.985Z,19.20
2018-04-15T20:44:47.565Z,19.20
2018-04-15T20:47:15.091Z,19.10
2018-04-15T20:49:42.630Z,19.10
2018-04-15T20:52:10.135Z,19.10
2018-04-15T20:54:37.629Z,19.10
2018-04-15T20:57:05.923Z,19.00
2018-04-15T20:59:34.223Z,19.00
2018-04-15T21:02:01.900Z,19.00
2018-04-15T21:04:29.416Z,19.00
2018-04-15T21:06:57.713Z,18.90
2018-04-15T21:09:25.279Z,18.90
2018-04-15T21:11:52.887Z,18.90
2018-04-15T21:14:20.368Z,18.90
2018-04-15T21:16:48.676Z,18.90
2018-04-15T21:19:16.188Z,18.90
2018-04-15T21:21:44.490Z,18.90
2018-04-15T21:24:12.002Z,18.90
2018-04-15T21:26:39.536Z,18.90
2018-04-15T21:29:07.087Z,18.90
2018-04-15T21:31:34.587Z,18.90
2018-04-15T21:34:02.124Z,18.90
2018-04-15T21:36:29.625Z,18.80
2018-04-15T21:38:57.911Z,18.80
2018-04-15T21:41:25.435Z,18.80
2018-04-15T21:43:53.005Z,18.80
2018-04-15T21:46:21.270Z,18.70
2018-04-15T21:48:48.951Z,18.70
2018-04-15T21:51:17.219Z,18.60
2018-04-15T21:53:45.526Z,18.70
2018-04-15T21:56:13.032Z,18.60
2018-04-15T21:58:40.538Z,18.60
2018-04-15T22:01:08.063Z,18.60
2018-04-15T22:03:36.337Z,18.50
2018-04-15T22:06:04.631Z,18.50
2018-04-15T22:08:32.139Z,18.50
2018-04-15T22:10:59.702Z,18.60
2018-04-15T22:13:27.219Z,18.50
2018-04-15T22:15:54.741Z,18.50
2018-04-15T22:18:23.008Z,18.50
2018-04-15T22:20:50.532Z,18.50
2018-04-15T22:23:18.079Z,18.50
2018-04-15T22:25:45.595Z,18.50
2018-04-15T22:28:13.851Z,18.50
2018-04-15T22:30:41.388Z,18.50
2018-04-15T22:33:08.889Z,18.50
2018-04-15T22:35:37.147Z,18.40
2018-04-15T22:38:04.678Z,18.50
2018-04-15T22:40:32.175Z,18.50
2018-04-15T22:43:00.467Z,18.40
2018-04-15T22:45:27.991Z,18.40
2018-04-15T22:48:02.029Z,18.40
2018-04-15T22:50:36.063Z,18.40
2018-04-15T22:53:03.598Z,18.40
2018-04-15T22:55:31.859Z,18.40
2018-04-15T22:58:00.118Z,18.40
2018-04-15T23:00:27.638Z,18.30
2018-04-15T23:02:55.158Z,18.30
2018-04-15T23:05:23.464Z,18.30
2018-04-15T23:07:50.981Z,18.30
2018-04-15T23:10:19.238Z,18.30
2018-04-15T23:12:46.754Z,18.20
2018-04-15T23:15:14.282Z,18.20
2018-04-15T23:17:42.560Z,18.20
2018-04-15T23:20:10.866Z,18.30
2018-04-15T23:22:38.415Z,18.20
2018-04-15T23:25:05.927Z,18.20
2018-04-15T23:27:33.431Z,18.20
2018-04-15T23:30:00.946Z,18.20
2018-04-15T23:32:28.595Z,18.20
2018-04-15T23:34:56.130Z,18.20
2018-04-15T23:37:23.619Z,18.10
2018-04-15T23:39:51.146Z,18.10
2018-04-15T23:42:18.666Z,18.10
2018-04-15T23:44:46.162Z,18.10
2018-04-15T23:47:13.683Z,18.10
2018-04-15T23:49:41.211Z,18.00
2018-04-15T23:52:08.749Z,18.00
2018-04-15T23:54:36.272Z,18.00
2018-04-15T23:57:03.781Z,18.00
2018-04-15T23:59:31.282Z,18.00
